createdAt,value
2018-07-13T00:00:44.552Z,991.57
2018-07-13T00:01:44.510Z,991.58
2018-07-13T00:02:44.437Z,991.62
2018-07-13T00:03:44.382Z,991.58
2018-07-13T00:04:44.313Z,991.61
2018-07-13T00:05:44.256Z,991.65
2018-07-13T00:06:44.190Z,991.69
2018-07-13T00:07:44.146Z,991.70
2018-07-13T00:08:44.068Z,991.67
2018-07-13T00:09:44.008Z,991.67
2018-07-13T00:10:43.946Z,991.68
2018-07-13T00:11:43.892Z,991.65
2018-07-13T00:12:43.834Z,991.62
2018-07-13T00:13:43.769Z,991.63
2018-07-13T00:14:43.720Z,991.63
2018-07-13T00:15:43.644Z,991.62
2018-07-13T00:16:43.590Z,991.65
2018-07-13T00:17:43.552Z,991.64
2018-07-13T00:18:43.470Z,991.65
2018-07-13T00:19:43.415Z,991.66
2018-07-13T00:20:43.353Z,991.64
2018-07-13T00:21:43.289Z,991.62
2018-07-13T00:22:43.221Z,991.65
2018-07-13T00:23:43.161Z,991.60
2018-07-13T00:24:43.107Z,991.65
2018-07-13T00:25:43.039Z,991.67
2018-07-13T00:26:42.987Z,991.68
2018-07-13T00:27:42.928Z,991.66
2018-07-13T00:28:42.851Z,991.68
2018-07-13T00:29:42.789Z,991.64
2018-07-13T00:30:42.738Z,991.68
2018-07-13T00:31:42.681Z,991.65
2018-07-13T00:32:42.608Z,991.66
2018-07-13T00:33:42.563Z,991.61
2018-07-13T00:34:42.487Z,991.64
2018-07-13T00:35:42.433Z,991.60
2018-07-13T00:36:42.370Z,991.62
2018-07-13T00:37:42.313Z,991.65
2018-07-13T00:38:42.241Z,991.65
2018-07-13T00:39:42.185Z,991.68
2018-07-13T00:40:42.130Z,991.68
2018-07-13T00:41:42.091Z,991.66
2018-07-13T00:42:41.999Z,991.70
2018-07-13T00:43:41.937Z,991.68
2018-07-13T00:44:41.892Z,991.67
2018-07-13T00:45:41.835Z,991.68
2018-07-13T00:46:41.764Z,991.66
2018-07-13T00:47:41.703Z,991.65
2018-07-13T00:48:41.647Z,991.71
2018-07-13T00:49:41.588Z,991.72
2018-07-13T00:50:41.518Z,991.70
2018-07-13T00:51:41.459Z,991.71
2018-07-13T00:52:41.393Z,991.73
2018-07-13T00:53:41.339Z,991.72
2018-07-13T00:54:41.290Z,991.68
2018-07-13T00:55:41.207Z,991.71
2018-07-13T00:56:41.149Z,991.71
2018-07-13T00:57:41.101Z,991.75
2018-07-13T00:58:41.030Z,991.73
2018-07-13T00:59:40.970Z,991.75
2018-07-13T01:00:40.919Z,991.77
2018-07-13T01:01:40.848Z,991.73
2018-07-13T01:02:40.797Z,991.77
2018-07-13T01:03:40.721Z,991.77
2018-07-13T01:04:40.672Z,991.80
2018-07-13T01:05:40.598Z,991.83
2018-07-13T01:06:40.557Z,991.82
2018-07-13T01:07:40.474Z,991.85
2018-07-13T01:08:40.427Z,991.86
2018-07-13T01:09:40.372Z,991.90
2018-07-13T01:10:40.302Z,991.84
2018-07-13T01:11:40.237Z,991.86
2018-07-13T01:12:40.178Z,991.82
2018-07-13T01:13:40.125Z,991.81
2018-07-13T01:14:40.051Z,991.80
2018-07-13T01:15:39.983Z,991.86
2018-07-13T01:16:39.946Z,991.82
2018-07-13T01:17:39.874Z,991.76
2018-07-13T01:18:39.810Z,991.74
2018-07-13T01:19:39.757Z,991.74
2018-07-13T01:20:39.713Z,991.81
2018-07-13T01:21:39.626Z,991.82
2018-07-13T01:22:39.567Z,991.81
2018-07-13T01:23:39.506Z,991.80
2018-07-13T01:24:39.464Z,991.82
2018-07-13T01:25:39.388Z,991.81
2018-07-13T01:26:39.312Z,991.83
2018-07-13T01:27:39.260Z,991.82
2018-07-13T01:28:39.189Z,991.84
2018-07-13T01:29:39.144Z,991.87
2018-07-13T01:30:39.074Z,991.89
2018-07-13T01:31:39.010Z,991.91
2018-07-13T01:32:38.952Z,991.88
2018-07-13T01:33:38.883Z,991.92
2018-07-13T01:34:38.821Z,991.90
2018-07-13T01:35:38.776Z,991.92
2018-07-13T01:36:38.713Z,991.92
2018-07-13T01:37:38.657Z,991.93
2018-07-13T01:38:38.576Z,991.94
2018-07-13T01:39:38.517Z,991.97
2018-07-13T01:40:38.453Z,991.97
2018-07-13T01:41:38.403Z,992.02
2018-07-13T01:42:38.336Z,991.96
2018-07-13T01:43:38.267Z,991.97
2018-07-13T01:44:38.225Z,992.00
2018-07-13T01:45:38.151Z,991.98
2018-07-13T01:46:38.099Z,991.96
2018-07-13T01:47:38.037Z,992.01
2018-07-13T01:48:37.971Z,991.97
2018-07-13T01:49:37.922Z,992.01
2018-07-13T01:50:37.856Z,992.00
2018-07-13T01:51:37.792Z,992.02
2018-07-13T01:52:37.726Z,992.01
2018-07-13T01:53:37.688Z,991.99
2018-07-13T01:54:37.618Z,991.97
2018-07-13T01:55:37.551Z,991.97
2018-07-13T01:56:37.475Z,991.94
2018-07-13T01:57:37.438Z,991.98
2018-07-13T01:58:37.417Z,991.95
2018-07-13T01:59:37.294Z,991.94
2018-07-13T02:00:37.231Z,991.94
2018-07-13T02:01:37.182Z,991.92
2018-07-13T02:02:37.105Z,991.94
2018-07-13T02:03:37.056Z,991.92
2018-07-13T02:04:36.980Z,991.92
2018-07-13T02:05:36.935Z,991.94
2018-07-13T02:06:36.865Z,991.93
2018-07-13T02:07:36.814Z,991.93
2018-07-13T02:08:36.752Z,991.95
2018-07-13T02:09:36.683Z,991.95
2018-07-13T02:10:36.627Z,991.94
2018-07-13T02:11:36.563Z,991.95
2018-07-13T02:12:36.495Z,991.94
2018-07-13T02:13:36.446Z,991.94
2018-07-13T02:14:36.380Z,991.93
2018-07-13T02:15:36.325Z,991.94
2018-07-13T02:16:36.252Z,991.94
2018-07-13T02:17:36.191Z,991.96
2018-07-13T02:18:36.125Z,991.96
2018-07-13T02:19:36.069Z,991.96
2018-07-13T02:20:36.005Z,992.03
2018-07-13T02:21:35.956Z,992.04
2018-07-13T02:22:35.877Z,992.02
2018-07-13T02:23:35.821Z,992.06
2018-07-13T02:24:35.767Z,992.04
2018-07-13T02:25:35.693Z,992.06
2018-07-13T02:26:35.632Z,992.07
2018-07-13T02:27:35.586Z,992.07
2018-07-13T02:28:35.524Z,992.04
2018-07-13T02:29:35.447Z,992.07
2018-07-13T02:30:35.389Z,992.02
2018-07-13T02:31:35.332Z,992.04
2018-07-13T02:32:35.267Z,992.04
2018-07-13T02:33:35.203Z,992.06
2018-07-13T02:34:35.154Z,992.01
2018-07-13T02:35:35.085Z,992.03
2018-07-13T02:36:35.030Z,992.03
2018-07-13T02:37:34.965Z,992.02
2018-07-13T02:38:34.893Z,992.03
2018-07-13T02:39:34.833Z,991.99
2018-07-13T02:40:34.773Z,991.98
2018-07-13T02:41:34.712Z,991.98
2018-07-13T02:42:34.645Z,992.01
2018-07-13T02:43:34.584Z,992.00
2018-07-13T02:44:34.531Z,992.03
2018-07-13T02:45:34.460Z,991.99
2018-07-13T02:46:34.399Z,992.03
2018-07-13T02:47:34.352Z,992.03
2018-07-13T02:48:34.287Z,992.04
2018-07-13T02:49:34.228Z,992.01
2018-07-13T02:50:34.151Z,992.07
2018-07-13T02:51:34.105Z,992.08
2018-07-13T02:52:34.029Z,992.09
2018-07-13T02:53:33.967Z,992.14
2018-07-13T02:54:33.910Z,992.11
2018-07-13T02:55:33.837Z,992.09
2018-07-13T02:56:33.794Z,992.12
2018-07-13T02:57:33.770Z,992.11
2018-07-13T02:58:33.659Z,992.14
2018-07-13T02:59:33.594Z,992.11
2018-07-13T03:00:33.536Z,992.14
2018-07-13T03:01:33.467Z,992.16
2018-07-13T03:02:33.403Z,992.15
2018-07-13T03:03:33.365Z,992.20
2018-07-13T03:04:33.287Z,992.20
2018-07-13T03:05:33.234Z,992.19
2018-07-13T03:06:33.168Z,992.21
2018-07-13T03:07:33.111Z,992.17
2018-07-13T03:08:33.048Z,992.17
2018-07-13T03:09:32.973Z,992.20
2018-07-13T03:10:32.927Z,992.23
2018-07-13T03:11:32.872Z,992.24
2018-07-13T03:12:32.798Z,992.28
2018-07-13T03:13:32.729Z,992.28
2018-07-13T03:14:32.663Z,992.29
2018-07-13T03:15:32.628Z,992.32
2018-07-13T03:16:32.540Z,992.33
2018-07-13T03:17:32.497Z,992.30
2018-07-13T03:18:32.423Z,992.29
2018-07-13T03:19:32.353Z,992.36
2018-07-13T03:20:32.303Z,992.39
2018-07-13T03:21:32.248Z,992.36
2018-07-13T03:22:32.226Z,992.39
2018-07-13T03:23:32.159Z,992.38
2018-07-13T03:24:32.157Z,992.33
2018-07-13T03:25:32.038Z,992.33
2018-07-13T03:26:31.913Z,992.34
2018-07-13T03:27:31.867Z,992.38
2018-07-13T03:28:31.807Z,992.35
2018-07-13T03:29:31.729Z,992.37
2018-07-13T03:30:31.681Z,992.35
2018-07-13T03:31:31.633Z,992.39
2018-07-13T03:32:31.573Z,992.38
2018-07-13T03:33:31.499Z,992.40
2018-07-13T03:34:31.428Z,992.46
2018-07-13T03:35:31.374Z,992.45
2018-07-13T03:36:31.330Z,992.52
2018-07-13T03:37:31.296Z,992.56
2018-07-13T03:38:31.198Z,992.54
2018-07-13T03:39:31.113Z,992.56
2018-07-13T03:40:31.068Z,992.56
2018-07-13T03:41:30.996Z,992.56
2018-07-13T03:42:31.162Z,992.57
2018-07-13T03:43:30.865Z,992.57
2018-07-13T03:44:30.818Z,992.56
2018-07-13T03:45:30.744Z,992.54
2018-07-13T03:46:30.686Z,992.54
2018-07-13T03:47:30.721Z,992.55
2018-07-13T03:48:30.629Z,992.54
2018-07-13T03:49:30.510Z,992.55
2018-07-13T03:50:30.434Z,992.51
2018-07-13T03:51:30.381Z,992.52
2018-07-13T03:52:30.310Z,992.50
2018-07-13T03:53:30.262Z,992.48
2018-07-13T03:54:30.198Z,992.45
2018-07-13T03:55:30.132Z,992.48
2018-07-13T03:56:30.073Z,992.45
2018-07-13T03:57:30.007Z,992.40
2018-07-13T03:58:29.936Z,992.43
2018-07-13T03:59:29.873Z,992.44
2018-07-13T04:00:29.841Z,992.44
2018-07-13T04:01:29.761Z,992.46
2018-07-13T04:02:29.689Z,992.46
2018-07-13T04:03:29.633Z,992.47
2018-07-13T04:04:29.567Z,992.55
2018-07-13T04:05:29.497Z,992.52
2018-07-13T04:06:29.516Z,992.55
2018-07-13T04:07:29.371Z,992.55
2018-07-13T04:08:29.324Z,992.55
2018-07-13T04:09:29.259Z,992.54
2018-07-13T04:10:29.203Z,992.53
2018-07-13T04:11:29.137Z,992.57
2018-07-13T04:12:29.072Z,992.53
2018-07-13T04:13:29.020Z,992.58
2018-07-13T04:14:28.957Z,992.51
2018-07-13T04:15:28.891Z,992.53
2018-07-13T04:16:28.820Z,992.57
2018-07-13T04:17:28.776Z,992.55
2018-07-13T04:18:28.699Z,992.51
2018-07-13T04:19:28.648Z,992.53
2018-07-13T04:20:28.573Z,992.54
2018-07-13T04:21:28.528Z,992.55
2018-07-13T04:22:28.453Z,992.57
2018-07-13T04:23:28.392Z,992.56
2018-07-13T04:24:28.333Z,992.55
2018-07-13T04:25:28.280Z,992.54
2018-07-13T04:26:28.210Z,992.56
2018-07-13T04:27:28.152Z,992.59
2018-07-13T04:28:28.096Z,992.61
2018-07-13T04:29:28.024Z,992.60
2018-07-13T04:30:27.962Z,992.62
2018-07-13T04:31:27.903Z,992.58
2018-07-13T04:32:27.829Z,992.62
2018-07-13T04:33:27.771Z,992.61
2018-07-13T04:34:27.710Z,992.60
2018-07-13T04:35:27.649Z,992.59
2018-07-13T04:36:27.594Z,992.60
2018-07-13T04:37:27.519Z,992.60
2018-07-13T04:38:27.468Z,992.62
2018-07-13T04:39:27.394Z,992.60
2018-07-13T04:40:27.333Z,992.61
2018-07-13T04:41:27.278Z,992.60
2018-07-13T04:42:27.220Z,992.63
2018-07-13T04:43:27.157Z,992.60
2018-07-13T04:44:27.091Z,992.60
2018-07-13T04:45:27.055Z,992.60
2018-07-13T04:46:26.964Z,992.56
2018-07-13T04:47:26.912Z,992.61
2018-07-13T04:48:26.841Z,992.56
2018-07-13T04:49:26.777Z,992.59
2018-07-13T04:50:26.714Z,992.58
2018-07-13T04:51:26.672Z,992.61
2018-07-13T04:52:26.602Z,992.58
2018-07-13T04:53:26.537Z,992.58
2018-07-13T04:54:26.474Z,992.59
2018-07-13T04:55:26.430Z,992.53
2018-07-13T04:56:26.352Z,992.57
2018-07-13T04:57:26.289Z,992.51
2018-07-13T04:58:26.228Z,992.59
2018-07-13T04:59:26.202Z,992.58
2018-07-13T05:00:26.113Z,992.60
2018-07-13T05:01:26.033Z,992.61
2018-07-13T05:02:25.982Z,992.63
2018-07-13T05:03:25.918Z,992.65
2018-07-13T05:04:25.851Z,992.64
2018-07-13T05:05:25.785Z,992.66
2018-07-13T05:06:25.740Z,992.63
2018-07-13T05:07:25.678Z,992.64
2018-07-13T05:08:25.612Z,992.63
2018-07-13T05:09:25.541Z,992.63
2018-07-13T05:10:25.484Z,992.62
2018-07-13T05:11:25.428Z,992.63
2018-07-13T05:12:25.355Z,992.64
2018-07-13T05:13:25.289Z,992.62
2018-07-13T05:14:25.257Z,992.62
2018-07-13T05:15:25.166Z,992.65
2018-07-13T05:16:25.104Z,992.66
2018-07-13T05:17:25.055Z,992.70
2018-07-13T05:18:24.995Z,992.67
2018-07-13T05:19:24.920Z,992.68
2018-07-13T05:20:24.874Z,992.67
2018-07-13T05:21:24.844Z,992.70
2018-07-13T05:22:24.741Z,992.68
2018-07-13T05:23:24.678Z,992.67
2018-07-13T05:24:24.620Z,992.70
2018-07-13T05:25:24.565Z,992.72
2018-07-13T05:26:24.486Z,992.75
2018-07-13T05:27:24.439Z,992.69
2018-07-13T05:28:24.360Z,992.74
2018-07-13T05:29:24.307Z,992.74
2018-07-13T05:30:24.246Z,992.70
2018-07-13T05:31:24.191Z,992.74
2018-07-13T05:32:24.125Z,992.73
2018-07-13T05:33:24.068Z,992.73
2018-07-13T05:34:23.999Z,992.76
2018-07-13T05:35:23.936Z,992.70
2018-07-13T05:36:23.885Z,992.76
2018-07-13T05:37:23.807Z,992.79
2018-07-13T05:38:23.759Z,992.75
2018-07-13T05:39:23.696Z,992.74
2018-07-13T05:40:23.624Z,992.75
2018-07-13T05:41:23.566Z,992.73
2018-07-13T05:42:23.508Z,992.76
2018-07-13T05:43:23.441Z,992.77
2018-07-13T05:44:23.385Z,992.79
2018-07-13T05:45:23.332Z,992.77
2018-07-13T05:46:23.251Z,992.74
2018-07-13T05:47:23.208Z,992.76
2018-07-13T05:48:23.147Z,992.79
2018-07-13T05:49:23.081Z,992.76
2018-07-13T05:50:23.023Z,992.73
2018-07-13T05:51:22.963Z,992.78
2018-07-13T05:52:22.898Z,992.81
2018-07-13T05:53:22.827Z,992.76
2018-07-13T05:54:22.770Z,992.77
2018-07-13T05:55:22.709Z,992.75
2018-07-13T05:56:22.647Z,992.74
2018-07-13T05:57:22.579Z,992.75
2018-07-13T05:58:22.516Z,992.76
2018-07-13T05:59:22.456Z,992.76
2018-07-13T06:00:22.406Z,992.73
2018-07-13T06:01:22.346Z,992.77
2018-07-13T06:02:22.284Z,992.78
2018-07-13T06:03:22.224Z,992.79
2018-07-13T06:04:22.147Z,992.81
2018-07-13T06:05:22.099Z,992.82
2018-07-13T06:06:22.031Z,992.79
2018-07-13T06:07:21.980Z,992.77
2018-07-13T06:08:21.919Z,992.80
2018-07-13T06:09:21.859Z,992.81
2018-07-13T06:10:21.796Z,992.80
2018-07-13T06:11:21.729Z,992.81
2018-07-13T06:12:21.665Z,992.85
2018-07-13T06:13:21.602Z,992.86
2018-07-13T06:14:21.541Z,992.89
2018-07-13T06:15:21.494Z,992.87
2018-07-13T06:16:21.441Z,992.87
2018-07-13T06:17:21.364Z,992.88
2018-07-13T06:18:21.302Z,992.87
2018-07-13T06:19:21.244Z,992.88
2018-07-13T06:20:21.232Z,992.86
2018-07-13T06:21:21.126Z,992.86
2018-07-13T06:22:21.056Z,992.91
2018-07-13T06:23:20.997Z,992.91
2018-07-13T06:24:21.031Z,992.87
2018-07-13T06:25:20.882Z,992.84
2018-07-13T06:26:20.812Z,992.83
2018-07-13T06:27:20.785Z,992.81
2018-07-13T06:28:20.703Z,992.78
2018-07-13T06:29:20.632Z,992.79
2018-07-13T06:30:20.608Z,992.76
2018-07-13T06:31:20.535Z,992.80
2018-07-13T06:32:20.456Z,992.83
2018-07-13T06:33:20.403Z,992.83
2018-07-13T06:34:20.341Z,992.83
2018-07-13T06:35:20.283Z,992.86
2018-07-13T06:36:20.202Z,992.83
2018-07-13T06:37:20.150Z,992.82
2018-07-13T06:38:20.087Z,992.80
2018-07-13T06:39:20.042Z,992.74
2018-07-13T06:40:19.980Z,992.78
2018-07-13T06:41:19.906Z,992.77
2018-07-13T06:42:19.848Z,992.81
2018-07-13T06:43:19.791Z,992.81
2018-07-13T06:44:19.729Z,992.82
2018-07-13T06:45:19.676Z,992.83
2018-07-13T06:46:19.619Z,992.80
2018-07-13T06:47:19.539Z,992.80
2018-07-13T06:48:19.496Z,992.82
2018-07-13T06:49:19.427Z,992.77
2018-07-13T06:50:19.411Z,992.73
2018-07-13T06:51:19.316Z,992.73
2018-07-13T06:52:19.254Z,992.71
2018-07-13T06:53:19.179Z,992.70
2018-07-13T06:54:19.121Z,992.74
2018-07-13T06:55:19.063Z,992.75
2018-07-13T06:56:19.003Z,992.79
2018-07-13T06:57:18.956Z,992.81
2018-07-13T06:58:18.894Z,992.82
2018-07-13T06:59:18.817Z,992.85
2018-07-13T07:00:18.768Z,992.85
2018-07-13T07:01:18.708Z,992.85
2018-07-13T07:02:18.640Z,992.86
2018-07-13T07:03:18.602Z,992.90
2018-07-13T07:04:18.528Z,992.90
2018-07-13T07:05:18.470Z,992.88
2018-07-13T07:06:18.410Z,992.89
2018-07-13T07:07:18.343Z,992.91
2018-07-13T07:08:18.284Z,992.90
2018-07-13T07:09:18.241Z,992.91
2018-07-13T07:10:18.173Z,992.90
2018-07-13T07:11:18.109Z,992.91
2018-07-13T07:12:18.048Z,992.91
2018-07-13T07:13:17.981Z,992.95
2018-07-13T07:14:17.938Z,992.96
2018-07-13T07:15:17.874Z,992.92
2018-07-13T07:16:17.820Z,992.94
2018-07-13T07:17:17.751Z,992.94
2018-07-13T07:18:17.693Z,992.97
2018-07-13T07:19:17.641Z,992.94
2018-07-13T07:20:17.579Z,992.91
2018-07-13T07:21:17.505Z,992.98
2018-07-13T07:22:17.450Z,992.99
2018-07-13T07:23:17.391Z,992.96
2018-07-13T07:24:17.328Z,992.99
2018-07-13T07:25:17.276Z,993.02
2018-07-13T07:26:17.222Z,993.05
2018-07-13T07:27:17.163Z,993.03
2018-07-13T07:28:17.087Z,993.07
2018-07-13T07:29:17.040Z,993.03
2018-07-13T07:30:16.983Z,993.01
2018-07-13T07:31:16.923Z,992.97
2018-07-13T07:32:16.861Z,993.02
2018-07-13T07:33:16.805Z,993.00
2018-07-13T07:34:16.760Z,992.97
2018-07-13T07:35:16.682Z,993.02
2018-07-13T07:36:16.622Z,992.98
2018-07-13T07:37:16.579Z,992.99
2018-07-13T07:38:16.517Z,992.98
2018-07-13T07:39:16.455Z,993.00
2018-07-13T07:40:16.380Z,992.97
2018-07-13T07:41:16.324Z,992.95
2018-07-13T07:42:16.269Z,992.96
2018-07-13T07:43:16.220Z,992.93
2018-07-13T07:44:16.175Z,992.93
2018-07-13T07:45:16.096Z,992.94
2018-07-13T07:46:16.039Z,992.91
2018-07-13T07:47:16.000Z,992.92
2018-07-13T07:48:15.920Z,992.87
2018-07-13T07:49:15.853Z,992.86
2018-07-13T07:50:15.810Z,992.90
2018-07-13T07:51:15.752Z,992.92
2018-07-13T07:52:15.688Z,992.92
2018-07-13T07:53:15.623Z,992.94
2018-07-13T07:54:15.568Z,992.94
2018-07-13T07:55:15.515Z,992.95
2018-07-13T07:56:15.453Z,992.93
2018-07-13T07:57:15.403Z,992.89
2018-07-13T07:58:15.349Z,992.91
2018-07-13T07:59:15.270Z,992.89
2018-07-13T08:00:15.219Z,992.92
2018-07-13T08:01:15.151Z,992.84
2018-07-13T08:02:15.093Z,992.87
2018-07-13T08:03:15.043Z,992.88
2018-07-13T08:04:14.980Z,992.91
2018-07-13T08:05:14.923Z,992.89
2018-07-13T08:06:15.076Z,992.89
2018-07-13T08:07:15.280Z,992.88
2018-07-13T08:08:14.744Z,992.89
2018-07-13T08:09:14.694Z,992.87
2018-07-13T08:10:14.649Z,992.88
2018-07-13T08:11:14.572Z,992.90
2018-07-13T08:12:14.521Z,992.89
2018-07-13T08:13:14.463Z,992.91
2018-07-13T08:14:14.670Z,992.90
2018-07-13T08:15:14.344Z,992.90
2018-07-13T08:16:14.289Z,992.87
2018-07-13T08:17:14.236Z,992.84
2018-07-13T08:18:14.171Z,992.86
2018-07-13T08:19:14.120Z,992.84
2018-07-13T08:20:14.044Z,992.85
2018-07-13T08:21:14.001Z,992.84
2018-07-13T08:22:13.933Z,992.82
2018-07-13T08:23:13.871Z,992.85
2018-07-13T08:24:13.819Z,992.79
2018-07-13T08:25:13.766Z,992.78
2018-07-13T08:26:13.697Z,992.81
2018-07-13T08:27:13.632Z,992.81
2018-07-13T08:28:13.578Z,992.79
2018-07-13T08:29:13.528Z,992.76
2018-07-13T08:30:13.470Z,992.75
2018-07-13T08:31:13.400Z,992.78
2018-07-13T08:32:13.352Z,992.77
2018-07-13T08:33:13.330Z,992.77
2018-07-13T08:34:13.238Z,992.73
2018-07-13T08:35:13.175Z,992.72
2018-07-13T08:36:13.113Z,992.72
2018-07-13T08:37:13.050Z,992.68
2018-07-13T08:38:13.009Z,992.70
2018-07-13T08:39:12.943Z,992.77
2018-07-13T08:40:12.876Z,992.69
2018-07-13T08:41:12.826Z,992.67
2018-07-13T08:42:12.769Z,992.66
2018-07-13T08:43:12.713Z,992.67
2018-07-13T08:44:12.651Z,992.67
2018-07-13T08:45:12.584Z,992.66
2018-07-13T08:46:12.567Z,992.63
2018-07-13T08:47:12.479Z,992.62
2018-07-13T08:48:12.421Z,992.57
2018-07-13T08:49:12.354Z,992.59
2018-07-13T08:50:12.319Z,992.55
2018-07-13T08:51:12.245Z,992.54
2018-07-13T08:52:12.195Z,992.57
2018-07-13T08:53:12.124Z,992.51
2018-07-13T08:54:12.068Z,992.53
2018-07-13T08:55:12.012Z,992.56
2018-07-13T08:56:11.955Z,992.54
2018-07-13T08:57:11.905Z,992.54
2018-07-13T08:58:11.832Z,992.55
2018-07-13T08:59:11.770Z,992.52
2018-07-13T09:00:11.730Z,992.57
2018-07-13T09:01:11.668Z,992.53
2018-07-13T09:02:11.606Z,992.53
2018-07-13T09:03:11.547Z,992.51
2018-07-13T09:04:11.533Z,992.54
2018-07-13T09:05:11.434Z,992.54
2018-07-13T09:06:11.368Z,992.56
2018-07-13T09:07:11.313Z,992.56
2018-07-13T09:08:11.262Z,992.53
2018-07-13T09:09:11.206Z,992.54
2018-07-13T09:10:11.133Z,992.54
2018-07-13T09:11:11.086Z,992.55
2018-07-13T09:12:11.030Z,992.59
2018-07-13T09:13:10.970Z,992.57
2018-07-13T09:14:10.907Z,992.59
2018-07-13T09:15:10.839Z,992.66
2018-07-13T09:16:10.801Z,992.64
2018-07-13T09:17:10.741Z,992.60
2018-07-13T09:18:10.706Z,992.55
2018-07-13T09:19:10.625Z,992.58
2018-07-13T09:20:10.556Z,992.60
2018-07-13T09:21:10.506Z,992.64
2018-07-13T09:22:10.456Z,992.61
2018-07-13T09:23:10.385Z,992.65
2018-07-13T09:24:10.378Z,992.71
2018-07-13T09:25:10.279Z,992.68
2018-07-13T09:26:10.203Z,992.67
2018-07-13T09:27:10.171Z,992.67
2018-07-13T09:28:10.093Z,992.68
2018-07-13T09:29:10.039Z,992.69
2018-07-13T09:30:09.979Z,992.64
2018-07-13T09:31:09.941Z,992.56
2018-07-13T09:32:09.864Z,992.52
2018-07-13T09:33:09.799Z,992.58
2018-07-13T09:34:09.756Z,992.55
2018-07-13T09:35:09.702Z,992.53
2018-07-13T09:36:09.635Z,992.56
2018-07-13T09:37:09.573Z,992.49
2018-07-13T09:38:09.587Z,992.49
2018-07-13T09:39:09.454Z,992.52
2018-07-13T09:40:09.397Z,992.47
2018-07-13T09:41:09.343Z,992.52
2018-07-13T09:42:09.287Z,992.53
2018-07-13T09:43:09.231Z,992.49
2018-07-13T09:44:09.172Z,992.54
2018-07-13T09:45:09.120Z,992.57
2018-07-13T09:46:09.065Z,992.57
2018-07-13T09:47:09.002Z,992.50
2018-07-13T09:48:08.943Z,992.52
2018-07-13T09:49:08.884Z,992.58
2018-07-13T09:50:08.818Z,992.49
2018-07-13T09:51:08.763Z,992.48
2018-07-13T09:52:08.719Z,992.39
2018-07-13T09:53:08.651Z,992.45
2018-07-13T09:54:08.717Z,992.45
2018-07-13T09:55:08.542Z,992.42
2018-07-13T09:56:08.480Z,992.42
2018-07-13T09:57:08.428Z,992.38
2018-07-13T09:58:08.362Z,992.42
2018-07-13T09:59:08.308Z,992.38
2018-07-13T10:00:08.255Z,992.39
2018-07-13T10:01:08.192Z,992.35
2018-07-13T10:02:08.130Z,992.37
2018-07-13T10:03:08.072Z,992.40
2018-07-13T10:04:08.003Z,992.37
2018-07-13T10:05:07.943Z,992.42
2018-07-13T10:06:07.910Z,992.42
2018-07-13T10:07:07.830Z,992.40
2018-07-13T10:08:07.776Z,992.37
2018-07-13T10:09:07.726Z,992.37
2018-07-13T10:10:07.651Z,992.36
2018-07-13T10:11:07.592Z,992.34
2018-07-13T10:12:07.553Z,992.33
2018-07-13T10:13:07.490Z,992.30
2018-07-13T10:14:07.457Z,992.33
2018-07-13T10:15:07.358Z,992.31
2018-07-13T10:16:07.309Z,992.36
2018-07-13T10:17:07.255Z,992.34
2018-07-13T10:18:07.192Z,992.32
2018-07-13T10:19:07.136Z,992.39
2018-07-13T10:20:07.081Z,992.42
2018-07-13T10:21:07.016Z,992.34
2018-07-13T10:22:06.956Z,992.37
2018-07-13T10:23:06.905Z,992.38
2018-07-13T10:24:06.850Z,992.34
2018-07-13T10:25:06.778Z,992.36
2018-07-13T10:26:06.724Z,992.36
2018-07-13T10:27:06.664Z,992.40
2018-07-13T10:28:06.604Z,992.36
2018-07-13T10:29:06.596Z,992.38
2018-07-13T10:30:06.493Z,992.35
2018-07-13T10:31:06.435Z,992.35
2018-07-13T10:32:06.378Z,992.33
2018-07-13T10:33:06.328Z,992.33
2018-07-13T10:34:06.271Z,992.32
2018-07-13T10:35:06.209Z,992.36
2018-07-13T10:36:06.154Z,992.34
2018-07-13T10:37:06.085Z,992.24
2018-07-13T10:38:06.037Z,992.34
2018-07-13T10:39:05.979Z,992.30
2018-07-13T10:40:05.924Z,992.32
2018-07-13T10:41:05.865Z,992.34
2018-07-13T10:42:05.794Z,992.31
2018-07-13T10:43:05.740Z,992.34
2018-07-13T10:44:05.687Z,992.31
2018-07-13T10:45:05.625Z,992.33
2018-07-13T10:46:05.573Z,992.32
2018-07-13T10:47:05.519Z,992.32
2018-07-13T10:48:05.461Z,992.35
2018-07-13T10:49:05.397Z,992.33
2018-07-13T10:50:05.334Z,992.25
2018-07-13T10:51:05.272Z,992.37
2018-07-13T10:52:05.228Z,992.29
2018-07-13T10:53:05.168Z,992.23
2018-07-13T10:54:05.095Z,992.24
2018-07-13T10:55:05.043Z,992.20
2018-07-13T10:56:04.990Z,992.26
2018-07-13T10:57:04.987Z,992.24
2018-07-13T10:58:04.879Z,992.23
2018-07-13T10:59:04.833Z,992.25
2018-07-13T11:00:04.769Z,992.26
2018-07-13T11:01:04.697Z,992.22
2018-07-13T11:02:04.642Z,992.16
2018-07-13T11:03:04.584Z,992.14
2018-07-13T11:04:04.519Z,992.10
2018-07-13T11:05:04.461Z,992.20
2018-07-13T11:06:04.409Z,992.14
2018-07-13T11:07:04.360Z,992.07
2018-07-13T11:08:04.360Z,992.12
2018-07-13T11:09:04.234Z,992.07
2018-07-13T11:10:04.182Z,992.10
2018-07-13T11:11:04.130Z,992.14
2018-07-13T11:12:04.069Z,992.04
2018-07-13T11:13:04.049Z,992.03
2018-07-13T11:14:04.036Z,992.03
2018-07-13T11:15:03.889Z,992.02
2018-07-13T11:16:03.828Z,991.95
2018-07-13T11:17:03.766Z,991.94
2018-07-13T11:18:03.704Z,991.98
2018-07-13T11:19:03.696Z,992.02
2018-07-13T11:20:03.594Z,991.96
2018-07-13T11:21:03.545Z,991.97
2018-07-13T11:22:03.485Z,991.99
2018-07-13T11:23:03.427Z,991.99
2018-07-13T11:24:03.363Z,991.91
2018-07-13T11:25:03.300Z,991.92
2018-07-13T11:26:03.244Z,991.87
2018-07-13T11:27:03.197Z,991.87
2018-07-13T11:28:03.124Z,991.90
2018-07-13T11:29:03.072Z,991.87
2018-07-13T11:30:03.036Z,991.85
2018-07-13T11:31:02.953Z,991.74
2018-07-13T11:32:02.904Z,991.80
2018-07-13T11:33:02.849Z,991.80
2018-07-13T11:34:02.772Z,991.75
2018-07-13T11:35:02.714Z,991.70
2018-07-13T11:36:02.699Z,991.66
2018-07-13T11:37:02.733Z,991.68
2018-07-13T11:38:02.576Z,991.66
2018-07-13T11:39:02.514Z,991.60
2018-07-13T11:40:02.462Z,991.61
2018-07-13T11:41:02.365Z,991.59
2018-07-13T11:42:02.316Z,991.67
2018-07-13T11:43:02.261Z,991.62
2018-07-13T11:44:02.254Z,991.63
2018-07-13T11:45:02.134Z,991.60
2018-07-13T11:46:02.075Z,991.60
2018-07-13T11:47:02.035Z,991.58
2018-07-13T11:48:01.961Z,991.59
2018-07-13T11:49:01.916Z,991.50
2018-07-13T11:50:01.855Z,991.47
2018-07-13T11:51:01.803Z,991.47
2018-07-13T11:52:01.781Z,991.51
2018-07-13T11:53:01.693Z,991.44
2018-07-13T11:54:01.625Z,991.39
2018-07-13T11:55:01.565Z,991.41
2018-07-13T11:56:01.516Z,991.37
2018-07-13T11:57:01.444Z,991.36
2018-07-13T11:58:01.377Z,991.32
2018-07-13T11:59:01.331Z,991.33
2018-07-13T12:00:01.281Z,991.31
2018-07-13T12:01:01.204Z,991.28
2018-07-13T12:02:01.149Z,991.31
2018-07-13T12:03:01.131Z,991.30
2018-07-13T12:04:01.043Z,991.33
2018-07-13T12:05:00.983Z,991.34
2018-07-13T12:06:00.928Z,991.32
2018-07-13T12:07:00.869Z,991.32
2018-07-13T12:08:00.806Z,991.28
2018-07-13T12:09:00.759Z,991.32
2018-07-13T12:10:00.692Z,991.32
2018-07-13T12:11:00.626Z,991.30
2018-07-13T12:12:00.572Z,991.28
2018-07-13T12:13:00.511Z,991.28
2018-07-13T12:14:00.450Z,991.30
2018-07-13T12:15:00.391Z,991.33
2018-07-13T12:16:00.329Z,991.27
2018-07-13T12:17:00.280Z,991.31
2018-07-13T12:18:00.226Z,991.23
2018-07-13T12:19:00.165Z,991.25
2018-07-13T12:20:00.188Z,991.27
2018-07-13T12:21:00.059Z,991.28
2018-07-13T12:21:59.998Z,991.23
2018-07-13T12:22:59.932Z,991.19
2018-07-13T12:23:59.875Z,991.17
2018-07-13T12:24:59.809Z,991.21
2018-07-13T12:25:59.762Z,991.12
2018-07-13T12:26:59.755Z,991.18
2018-07-13T12:27:59.648Z,991.15